Terminal Aerodrome Forecast
Issued by NWS St Louis, MO

Home | Current Version | Previous Version | Graphics & Text | Print | Product List | Glossary On
Versions: 1 2 3 4 5 6 7 8 9 10 11 12 13 14 15 16 17 18 19 20 21 22 23 24 25 26 27 28 29 30
098
FTUS43 KLSX 140859 AAB
TAFSTL
TAF AMD
KSTL 140859Z 1409/1512 08006KT 4SM -RA BR OVC006
      TEMPO 1410/1413 2SM -RA BR
     FM141300 36005KT 6SM BR OVC005
     FM150000 03005KT P6SM OVC012
     FM150900 05006KT 5SM -FZRA BR OVC015=

USA.gov is the U.S. government's official web portal to all federal, state and local government web resources and services.